createdAt,value
2017-08-26T00:01:34.862Z,6.27
2017-08-26T00:04:01.408Z,5.80
2017-08-26T00:06:28.159Z,5.57
2017-08-26T00:08:58.378Z,7.00
2017-08-26T00:11:28.817Z,6.20
2017-08-26T00:13:57.308Z,6.23
2017-08-26T00:16:28.971Z,5.83
2017-08-26T00:18:55.741Z,6.17
2017-08-26T00:21:28.937Z,6.00
2017-08-26T00:26:54.900Z,5.80
2017-08-26T00:29:23.129Z,7.20
2017-08-26T00:31:58.022Z,7.20
2017-08-26T00:34:28.089Z,6.50
2017-08-26T00:36:58.073Z,6.90
2017-08-26T00:39:28.944Z,6.60
2017-08-26T00:42:11.373Z,6.50
2017-08-26T00:44:55.272Z,6.73
2017-08-26T00:47:28.973Z,6.50
2017-08-26T00:49:58.104Z,6.83
2017-08-26T00:52:37.609Z,7.77
2017-08-26T00:55:07.265Z,6.50
2017-08-26T00:57:33.785Z,6.77
2017-08-26T01:00:00.444Z,6.50
2017-08-26T01:02:29.266Z,6.83
2017-08-26T01:04:59.684Z,6.47
2017-08-26T01:07:52.756Z,6.23
2017-08-26T01:10:23.419Z,6.40
2017-08-26T01:12:59.093Z,6.80
2017-08-26T01:15:29.227Z,6.90
2017-08-26T01:18:00.840Z,6.70
2017-08-26T01:20:29.170Z,6.63
2017-08-26T01:22:59.193Z,8.03
2017-08-26T01:25:28.883Z,6.50
2017-08-26T01:27:59.304Z,7.47
2017-08-26T01:30:29.049Z,7.00
2017-08-26T01:32:59.492Z,6.27
2017-08-26T01:35:28.307Z,6.73
2017-08-26T01:38:00.966Z,7.60
2017-08-26T01:40:29.117Z,6.83
2017-08-26T01:42:58.936Z,7.43
2017-08-26T01:45:29.093Z,7.10
2017-08-26T01:47:58.141Z,6.00
2017-08-26T01:50:26.043Z,6.87
2017-08-26T01:52:55.195Z,7.60
2017-08-26T01:55:29.982Z,8.20
2017-08-26T01:58:24.100Z,7.17
2017-08-26T02:00:58.515Z,6.87
2017-08-26T02:03:31.149Z,6.43
2017-08-26T02:05:59.240Z,8.07
2017-08-26T02:08:30.170Z,7.10
2017-08-26T02:11:01.275Z,7.43
2017-08-26T02:13:29.457Z,7.10
2017-08-26T02:15:58.402Z,7.30
2017-08-26T02:18:31.190Z,6.80
2017-08-26T02:20:58.492Z,7.40
2017-08-26T02:23:25.110Z,7.80
2017-08-26T02:26:05.378Z,7.33
2017-08-26T02:28:33.364Z,7.20
2017-08-26T02:31:04.488Z,6.83
2017-08-26T02:33:31.387Z,7.40
2017-08-26T02:35:58.053Z,6.90
2017-08-26T02:38:27.130Z,7.17
2017-08-26T02:40:57.536Z,7.20
2017-08-26T02:43:25.083Z,6.93
2017-08-26T02:45:53.641Z,7.77
2017-08-26T02:48:22.272Z,7.60
2017-08-26T02:50:51.868Z,7.07
2017-08-26T02:53:22.283Z,6.97
2017-08-26T02:55:53.344Z,6.73
2017-08-26T02:58:36.936Z,7.60
2017-08-26T03:01:03.252Z,7.70
2017-08-26T03:03:30.015Z,7.80
2017-08-26T03:05:58.471Z,7.77
2017-08-26T03:08:31.042Z,7.57
2017-08-26T03:10:57.407Z,8.67
2017-08-26T03:13:24.459Z,7.93
2017-08-26T03:15:53.875Z,7.50
2017-08-26T03:18:20.676Z,7.37
2017-08-26T03:20:52.713Z,7.90
2017-08-26T03:23:24.854Z,7.77
2017-08-26T03:25:57.457Z,7.40
2017-08-26T03:28:29.048Z,8.47
2017-08-26T03:30:56.635Z,8.00
2017-08-26T03:33:24.727Z,8.07
2017-08-26T03:35:59.545Z,7.97
2017-08-26T03:38:26.459Z,7.50
2017-08-26T03:41:00.317Z,7.90
2017-08-26T03:43:32.997Z,6.70
2017-08-26T03:45:59.936Z,7.80
2017-08-26T03:48:30.645Z,7.30
2017-08-26T03:50:58.969Z,7.40
2017-08-26T03:53:29.654Z,6.97
2017-08-26T03:56:00.530Z,7.90
2017-08-26T03:58:27.018Z,7.03
2017-08-26T04:00:58.483Z,7.93
2017-08-26T04:03:25.199Z,7.50
2017-08-26T04:05:57.066Z,7.70
2017-08-26T04:08:30.552Z,6.60
2017-08-26T04:10:59.533Z,6.43
2017-08-26T04:13:27.138Z,7.70
2017-08-26T04:15:55.895Z,7.07
2017-08-26T04:18:28.582Z,6.77
2017-08-26T04:20:55.547Z,7.17
2017-08-26T04:23:23.989Z,7.73
2017-08-26T04:25:55.994Z,7.20
2017-08-26T04:28:29.476Z,7.40
2017-08-26T04:31:07.079Z,9.60
2017-08-26T04:33:34.434Z,7.00
2017-08-26T04:36:01.170Z,6.90
2017-08-26T04:38:28.933Z,7.77
2017-08-26T04:40:59.628Z,7.47
2017-08-26T04:43:27.965Z,7.60
2017-08-26T04:45:58.985Z,8.23
2017-08-26T04:48:28.765Z,8.70
2017-08-26T04:50:58.514Z,8.10
2017-08-26T04:53:25.176Z,7.47
2017-08-26T04:55:57.186Z,7.83
2017-08-26T04:58:28.851Z,8.50
2017-08-26T05:00:58.548Z,8.60
2017-08-26T05:03:27.550Z,8.27
2017-08-26T05:05:58.858Z,8.87
2017-08-26T05:08:38.308Z,8.30
2017-08-26T05:11:05.806Z,9.00
2017-08-26T05:13:32.067Z,8.73
2017-08-26T05:16:01.737Z,9.93
2017-08-26T05:18:31.692Z,9.03
2017-08-26T05:20:59.012Z,9.60
2017-08-26T05:23:26.385Z,9.27
2017-08-26T05:25:57.193Z,9.33
2017-08-26T05:28:28.615Z,9.60
2017-08-26T05:31:00.054Z,8.60
2017-08-26T05:33:27.407Z,9.43
2017-08-26T05:35:58.466Z,8.37
2017-08-26T05:38:27.589Z,8.90
2017-08-26T05:40:59.764Z,8.63
2017-08-26T05:43:28.915Z,8.67
2017-08-26T05:45:57.842Z,9.40
2017-08-26T05:48:26.084Z,8.50
2017-08-26T05:51:04.923Z,9.03
2017-08-26T05:53:34.940Z,9.30
2017-08-26T05:56:01.656Z,8.50
2017-08-26T05:58:28.234Z,9.10
2017-08-26T06:00:58.741Z,9.30
2017-08-26T06:03:26.001Z,9.43
2017-08-26T06:05:57.205Z,10.10
2017-08-26T06:08:27.995Z,9.77
2017-08-26T06:10:58.662Z,8.33
2017-08-26T06:13:30.628Z,9.17
2017-08-26T06:15:59.527Z,9.73
2017-08-26T06:18:29.778Z,9.43
2017-08-26T06:21:00.804Z,10.10
2017-08-26T06:23:31.818Z,9.93
2017-08-26T06:26:01.206Z,9.83
2017-08-26T06:28:35.947Z,9.90
2017-08-26T06:31:02.786Z,10.20
2017-08-26T06:33:29.256Z,9.80
2017-08-26T06:35:57.365Z,10.07
2017-08-26T06:38:27.207Z,10.20
2017-08-26T06:40:58.141Z,10.63
2017-08-26T06:43:28.568Z,9.60
2017-08-26T06:45:58.369Z,10.50
2017-08-26T06:48:29.300Z,11.10
2017-08-26T06:50:58.097Z,9.47
2017-08-26T06:53:28.243Z,10.50
2017-08-26T06:55:57.329Z,10.63
2017-08-26T06:58:28.805Z,10.40
2017-08-26T07:01:00.555Z,10.03
2017-08-26T07:03:29.168Z,9.60
2017-08-26T07:05:57.071Z,9.83
2017-08-26T07:08:26.003Z,10.30
2017-08-26T07:10:57.512Z,9.83
2017-08-26T07:13:26.195Z,7.67
2017-08-26T07:15:54.197Z,7.20
2017-08-26T07:18:23.985Z,7.10
2017-08-26T07:20:54.171Z,7.00
2017-08-26T07:23:24.516Z,7.90
2017-08-26T07:25:54.023Z,8.23
2017-08-26T07:28:24.124Z,9.00
2017-08-26T07:30:59.173Z,7.83
2017-08-26T07:33:28.694Z,8.13
2017-08-26T07:36:01.612Z,7.13
2017-08-26T07:38:29.677Z,6.80
2017-08-26T07:40:57.696Z,6.63
2017-08-26T07:43:26.610Z,7.57
2017-08-26T07:45:55.620Z,7.40
2017-08-26T07:48:26.441Z,6.03
2017-08-26T07:51:02.035Z,4.87
2017-08-26T07:53:32.286Z,4.70
2017-08-26T07:56:00.581Z,4.63
2017-08-26T07:58:30.038Z,5.10
2017-08-26T08:01:01.078Z,5.10
2017-08-26T08:03:30.409Z,4.70
2017-08-26T08:06:00.353Z,5.10
2017-08-26T08:08:29.250Z,5.37
2017-08-26T08:10:56.040Z,5.40
2017-08-26T08:13:26.800Z,4.80
2017-08-26T08:15:59.332Z,5.60
2017-08-26T08:18:27.779Z,4.40
2017-08-26T08:20:59.087Z,5.40
2017-08-26T08:23:28.982Z,5.03
2017-08-26T08:25:57.297Z,5.50
2017-08-26T08:28:25.801Z,5.60
2017-08-26T08:30:55.786Z,5.50
2017-08-26T08:33:25.095Z,4.97
2017-08-26T08:36:00.170Z,5.87
2017-08-26T08:38:29.079Z,5.03
2017-08-26T08:40:58.331Z,5.40
2017-08-26T08:43:26.145Z,5.90
2017-08-26T08:45:54.605Z,5.40
2017-08-26T08:48:23.646Z,6.60
2017-08-26T08:50:53.285Z,5.47
2017-08-26T08:53:21.812Z,5.40
2017-08-26T08:55:49.578Z,5.70
2017-08-26T08:58:20.369Z,5.80
2017-08-26T09:00:52.106Z,6.00
2017-08-26T09:03:21.180Z,5.97
2017-08-26T09:05:51.342Z,5.77
2017-08-26T09:08:21.882Z,6.10
2017-08-26T09:10:50.714Z,5.53
2017-08-26T09:13:19.141Z,5.40
2017-08-26T09:15:50.077Z,6.40
2017-08-26T09:18:22.582Z,6.17
2017-08-26T09:20:53.526Z,6.47
2017-08-26T09:23:22.970Z,5.90
2017-08-26T09:25:53.600Z,5.80
2017-08-26T09:28:20.836Z,5.60
2017-08-26T09:30:58.057Z,5.40
2017-08-26T09:33:30.136Z,6.17
2017-08-26T09:36:00.076Z,6.30
2017-08-26T09:38:29.439Z,6.37
2017-08-26T09:40:58.507Z,6.67
2017-08-26T09:43:28.068Z,6.63
2017-08-26T09:45:55.954Z,7.30
2017-08-26T09:48:29.335Z,7.13
2017-08-26T09:50:57.785Z,7.07
2017-08-26T09:53:28.163Z,7.50
2017-08-26T09:55:56.373Z,7.37
2017-08-26T09:58:24.346Z,8.93
2017-08-26T10:00:52.719Z,8.27
2017-08-26T10:03:21.670Z,7.70
2017-08-26T10:05:55.981Z,7.60
2017-08-26T10:08:27.516Z,8.50
2017-08-26T10:10:59.274Z,8.13
2017-08-26T10:13:31.187Z,8.10
2017-08-26T10:15:57.521Z,8.90
2017-08-26T10:18:25.626Z,10.17
2017-08-26T10:20:54.085Z,8.67
2017-08-26T10:23:24.487Z,8.67
2017-08-26T10:25:58.215Z,9.17
2017-08-26T10:28:25.225Z,9.37
2017-08-26T10:30:55.339Z,10.80
2017-08-26T10:33:27.238Z,10.77
2017-08-26T10:35:59.117Z,11.50
2017-08-26T10:38:28.395Z,12.00
2017-08-26T10:41:00.712Z,12.60
2017-08-26T10:43:29.167Z,10.60
2017-08-26T10:45:59.309Z,10.10
2017-08-26T10:48:29.491Z,9.47
2017-08-26T10:50:56.811Z,9.80
2017-08-26T10:53:28.818Z,9.77
2017-08-26T10:56:01.666Z,10.00
2017-08-26T10:58:31.030Z,11.07
2017-08-26T11:01:23.696Z,10.50
2017-08-26T11:04:07.580Z,9.93
2017-08-26T11:06:35.686Z,10.50
2017-08-26T11:09:02.343Z,12.40
2017-08-26T11:11:32.036Z,10.60
2017-08-26T11:14:10.724Z,10.97
2017-08-26T11:19:33.667Z,13.23
2017-08-26T11:22:00.990Z,14.00
2017-08-26T11:24:28.991Z,12.80
2017-08-26T11:27:03.030Z,13.70
2017-08-26T11:29:36.542Z,14.30
2017-08-26T11:32:02.913Z,15.07
2017-08-26T11:34:29.374Z,13.90
2017-08-26T11:37:09.541Z,15.07
2017-08-26T11:39:41.117Z,13.97
2017-08-26T11:42:07.391Z,13.60
2017-08-26T11:44:33.799Z,13.67
2017-08-26T11:47:10.047Z,14.83
2017-08-26T11:52:35.156Z,14.17
2017-08-26T11:55:01.631Z,14.73
2017-08-26T11:57:32.141Z,14.70
2017-08-26T12:00:00.394Z,14.13
2017-08-26T12:02:30.665Z,15.10
2017-08-26T12:05:01.262Z,13.40
2017-08-26T12:07:28.263Z,14.10
2017-08-26T12:09:58.996Z,14.93
2017-08-26T12:12:31.745Z,16.97
2017-08-26T12:15:00.304Z,18.07
2017-08-26T12:17:28.102Z,18.40
2017-08-26T12:19:58.499Z,19.80
2017-08-26T12:22:30.222Z,20.40
2017-08-26T12:25:01.544Z,21.20
2017-08-26T12:27:31.574Z,19.37
2017-08-26T12:30:16.875Z,21.17
2017-08-26T12:33:03.297Z,23.43
2017-08-26T12:35:34.339Z,23.70
2017-08-26T12:38:02.357Z,22.00
2017-08-26T12:40:30.007Z,23.00
2017-08-26T12:43:04.941Z,23.30
2017-08-26T12:45:31.350Z,27.10
2017-08-26T12:48:00.672Z,24.50
2017-08-26T12:50:31.309Z,27.17
2017-08-26T12:53:01.544Z,26.97
2017-08-26T12:55:31.553Z,26.27
2017-08-26T12:58:01.589Z,27.67
2017-08-26T13:00:29.700Z,27.33
2017-08-26T13:03:00.522Z,27.23
2017-08-26T13:05:30.701Z,27.90
2017-08-26T13:07:59.850Z,28.73
2017-08-26T13:10:27.906Z,27.60
2017-08-26T13:12:56.375Z,28.90
2017-08-26T13:15:28.574Z,28.00
2017-08-26T13:18:18.198Z,26.47
2017-08-26T13:20:51.366Z,27.60
2017-08-26T13:25:59.511Z,25.40
2017-08-26T13:28:30.367Z,25.90
2017-08-26T13:30:59.450Z,24.97
2017-08-26T13:33:38.071Z,23.60
2017-08-26T13:36:05.211Z,25.90
2017-08-26T13:38:31.777Z,23.67
2017-08-26T13:40:59.289Z,22.20
2017-08-26T13:43:31.727Z,21.83
2017-08-26T13:45:58.910Z,18.87
2017-08-26T13:48:28.516Z,19.13
2017-08-26T13:51:00.025Z,20.90
2017-08-26T13:53:30.854Z,21.67
2017-08-26T13:56:09.851Z,21.03
2017-08-26T13:58:38.832Z,21.40
2017-08-26T14:01:05.313Z,20.87
2017-08-26T14:03:31.824Z,22.20
2017-08-26T14:08:32.407Z,23.27
2017-08-26T14:11:00.142Z,22.10
2017-08-26T14:13:29.137Z,22.07
2017-08-26T14:15:57.186Z,22.23
2017-08-26T14:18:28.013Z,18.63
2017-08-26T14:20:58.117Z,18.73
2017-08-26T14:23:31.903Z,16.27
2017-08-26T14:26:01.393Z,17.43
2017-08-26T14:28:41.580Z,20.30
2017-08-26T14:31:10.474Z,23.87
2017-08-26T14:33:36.765Z,22.77
2017-08-26T14:36:03.190Z,21.13
2017-08-26T14:41:22.710Z,23.73
2017-08-26T14:43:59.289Z,23.03
2017-08-26T14:46:30.077Z,23.50
2017-08-26T14:49:01.478Z,25.67
2017-08-26T14:51:30.053Z,26.40
2017-08-26T14:53:59.309Z,27.60
2017-08-26T14:56:28.786Z,24.90
2017-08-26T14:59:00.834Z,23.60
2017-08-26T15:01:34.390Z,22.80
2017-08-26T15:04:06.634Z,20.97
2017-08-26T15:06:34.385Z,21.03
2017-08-26T15:09:00.922Z,22.60
2017-08-26T15:11:38.865Z,21.23
2017-08-26T15:14:09.074Z,23.03
2017-08-26T15:16:36.165Z,24.27
2017-08-26T15:19:03.743Z,23.63
2017-08-26T15:21:30.390Z,24.90
2017-08-26T15:23:59.621Z,24.10
2017-08-26T15:26:28.185Z,25.50
2017-08-26T15:28:59.740Z,25.37
2017-08-26T15:31:29.492Z,23.37
2017-08-26T15:34:09.614Z,23.97
2017-08-26T15:36:37.461Z,23.33
2017-08-26T15:39:04.029Z,19.63
2017-08-26T15:41:30.575Z,20.70
2017-08-26T15:43:59.382Z,19.70
2017-08-26T15:46:29.887Z,17.93
2017-08-26T15:49:01.702Z,19.63
2017-08-26T15:51:30.485Z,18.00
2017-08-26T15:53:59.922Z,17.23
2017-08-26T15:56:30.019Z,17.37
2017-08-26T15:58:59.570Z,15.30
2017-08-26T16:01:29.416Z,17.40
2017-08-26T16:03:57.789Z,15.30
2017-08-26T16:06:32.749Z,14.70
2017-08-26T16:09:03.193Z,14.30
2017-08-26T16:11:35.034Z,14.50
2017-08-26T16:14:03.088Z,17.33
2017-08-26T16:16:31.538Z,14.20
2017-08-26T16:19:02.111Z,13.90
2017-08-26T16:21:33.831Z,15.47
2017-08-26T16:24:00.235Z,15.60
2017-08-26T16:26:28.936Z,17.37
2017-08-26T16:29:02.014Z,14.80
2017-08-26T16:31:30.473Z,15.40
2017-08-26T16:33:57.529Z,17.77
2017-08-26T16:39:25.056Z,16.47
2017-08-26T16:44:52.745Z,15.63
2017-08-26T16:47:24.902Z,13.80
2017-08-26T16:50:01.597Z,13.07
2017-08-26T16:52:30.486Z,14.43
2017-08-26T17:00:31.778Z,11.30
2017-08-26T17:03:01.262Z,11.27
2017-08-26T17:05:29.309Z,11.57
2017-08-26T17:11:01.432Z,10.63
2017-08-26T17:13:57.639Z,11.40
2017-08-26T17:16:42.564Z,11.23
2017-08-26T17:19:27.013Z,10.87
2017-08-26T17:21:57.946Z,10.70
2017-08-26T17:24:30.730Z,9.13
2017-08-26T17:26:58.310Z,10.60
2017-08-26T17:29:37.719Z,10.73
2017-08-26T17:32:11.437Z,11.00
2017-08-26T17:34:37.987Z,10.30
2017-08-26T17:37:13.630Z,10.97
2017-08-26T17:39:45.428Z,10.80
2017-08-26T17:42:24.786Z,9.83
2017-08-26T17:44:52.687Z,9.40
2017-08-26T17:47:20.997Z,9.37
2017-08-26T17:49:50.568Z,10.70
2017-08-26T17:52:19.675Z,10.70
2017-08-26T17:54:52.338Z,9.70
2017-08-26T17:57:20.951Z,9.03
2017-08-26T17:59:52.657Z,9.50
2017-08-26T18:02:31.488Z,9.57
2017-08-26T18:05:02.916Z,10.00
2017-08-26T18:07:30.691Z,9.23
2017-08-26T18:09:59.625Z,10.17
2017-08-26T18:12:33.444Z,12.10
2017-08-26T18:15:01.943Z,10.77
2017-08-26T18:17:29.674Z,10.57
2017-08-26T18:19:58.795Z,10.37
2017-08-26T18:22:40.683Z,11.30
2017-08-26T18:25:08.336Z,10.30
2017-08-26T18:27:34.811Z,10.27
2017-08-26T18:30:01.310Z,10.50
2017-08-26T18:32:38.081Z,9.80
2017-08-26T18:35:06.022Z,9.33
2017-08-26T18:37:32.604Z,11.10
2017-08-26T18:39:59.513Z,11.60
2017-08-26T18:42:38.550Z,12.50
2017-08-26T18:45:08.425Z,11.97
2017-08-26T18:47:34.978Z,12.50
2017-08-26T18:50:01.459Z,11.93
2017-08-26T18:52:29.617Z,11.23
2017-08-26T18:58:03.211Z,12.20
2017-08-26T19:00:37.054Z,13.77
2017-08-26T19:03:03.409Z,11.43
2017-08-26T19:05:30.681Z,11.30
2017-08-26T19:08:08.986Z,11.97
2017-08-26T19:10:39.444Z,11.67
2017-08-26T19:13:06.314Z,13.47
2017-08-26T19:15:32.562Z,13.07
2017-08-26T19:18:11.162Z,13.60
2017-08-26T19:20:45.601Z,13.50
2017-08-26T19:23:21.310Z,12.73
2017-08-26T19:26:00.183Z,12.83
2017-08-26T19:28:29.049Z,11.87
2017-08-26T19:30:58.666Z,13.90
2017-08-26T19:36:08.806Z,13.70
2017-08-26T19:38:35.465Z,12.43
2017-08-26T19:41:01.937Z,11.90
2017-08-26T19:43:29.019Z,13.07
2017-08-26T19:46:10.651Z,12.63
2017-08-26T19:48:37.287Z,13.47
2017-08-26T19:51:03.741Z,12.90
2017-08-26T19:53:30.186Z,12.43
2017-08-26T19:56:01.951Z,13.67
2017-08-26T19:58:29.213Z,13.67
2017-08-26T20:00:59.927Z,13.60
2017-08-26T20:03:27.925Z,13.03
2017-08-26T20:06:05.276Z,13.47
2017-08-26T20:08:34.655Z,13.97
2017-08-26T20:11:03.040Z,14.00
2017-08-26T20:13:30.331Z,14.00
2017-08-26T20:15:59.439Z,14.90
2017-08-26T20:18:34.655Z,15.90
2017-08-26T20:21:02.970Z,12.67
2017-08-26T20:23:29.468Z,17.10
2017-08-26T20:26:00.089Z,15.60
2017-08-26T20:28:34.934Z,15.87
2017-08-26T20:31:08.395Z,17.03
2017-08-26T20:33:36.246Z,15.20
2017-08-26T20:36:02.938Z,15.90
2017-08-26T20:38:30.045Z,15.80
2017-08-26T20:41:03.621Z,16.63
2017-08-26T20:43:33.169Z,16.17
2017-08-26T20:46:00.698Z,15.43
2017-08-26T20:48:29.081Z,16.90
2017-08-26T20:50:57.573Z,14.63
2017-08-26T20:53:37.715Z,16.80
2017-08-26T20:56:05.657Z,16.27
2017-08-26T20:58:32.261Z,16.40
2017-08-26T21:00:59.555Z,16.10
2017-08-26T21:03:40.775Z,16.20
2017-08-26T21:06:10.846Z,16.57
2017-08-26T21:08:37.413Z,14.13
2017-08-26T21:11:03.915Z,15.50
2017-08-26T21:13:31.302Z,16.97
2017-08-26T21:16:14.642Z,16.00
2017-08-26T21:18:49.595Z,14.73
2017-08-26T21:21:29.112Z,14.87
2017-08-26T21:23:58.002Z,15.40
2017-08-26T21:26:30.909Z,16.90
2017-08-26T21:29:10.688Z,14.80
2017-08-26T21:31:39.193Z,14.87
2017-08-26T21:34:05.698Z,15.87
2017-08-26T21:36:32.231Z,15.57
2017-08-26T21:39:06.146Z,15.80
2017-08-26T21:41:37.782Z,15.20
2017-08-26T21:44:06.185Z,15.53
2017-08-26T21:46:33.140Z,15.80
2017-08-26T21:49:00.320Z,15.17
2017-08-26T21:51:28.337Z,15.17
2017-08-26T21:54:02.582Z,13.37
2017-08-26T21:56:30.504Z,15.60
2017-08-26T21:58:58.585Z,16.40
2017-08-26T22:01:26.404Z,16.13
2017-08-26T22:03:54.406Z,14.20
2017-08-26T22:06:31.332Z,15.47
2017-08-26T22:09:00.692Z,15.53
2017-08-26T22:11:30.044Z,14.60
2017-08-26T22:13:59.255Z,15.53
2017-08-26T22:16:30.245Z,15.30
2017-08-26T22:18:58.864Z,14.67
2017-08-26T22:21:27.444Z,16.07
2017-08-26T22:23:59.390Z,15.73
2017-08-26T22:26:30.358Z,15.67
2017-08-26T22:29:01.475Z,15.77
2017-08-26T22:31:30.595Z,15.27
2017-08-26T22:34:04.167Z,15.37
2017-08-26T22:36:30.957Z,14.90
2017-08-26T22:39:01.867Z,17.80
2017-08-26T22:41:29.870Z,16.67
2017-08-26T22:43:58.988Z,18.57
2017-08-26T22:46:32.894Z,18.07
2017-08-26T22:49:01.016Z,16.50
2017-08-26T22:51:31.051Z,17.03
2017-08-26T22:54:02.400Z,16.27
2017-08-26T22:56:34.250Z,16.43
2017-08-26T22:59:03.306Z,15.73
2017-08-26T23:01:30.596Z,15.67
2017-08-26T23:04:01.979Z,18.57
2017-08-26T23:06:32.038Z,17.73
2017-08-26T23:09:02.235Z,16.70
2017-08-26T23:11:30.821Z,16.87
2017-08-26T23:14:00.809Z,15.83
2017-08-26T23:16:31.884Z,16.67
2017-08-26T23:19:01.780Z,16.90
2017-08-26T23:21:30.256Z,16.83
2017-08-26T23:24:01.548Z,16.07
2017-08-26T23:26:29.894Z,17.20
2017-08-26T23:29:02.039Z,16.40
2017-08-26T23:31:34.513Z,15.73
2017-08-26T23:34:09.013Z,17.40
2017-08-26T23:36:37.151Z,17.47
2017-08-26T23:39:03.735Z,16.80
2017-08-26T23:41:48.329Z,17.40
2017-08-26T23:44:31.924Z,18.20
2017-08-26T23:47:03.020Z,18.00
2017-08-26T23:49:30.930Z,18.20
2017-08-26T23:52:20.136Z,17.70
2017-08-26T23:54:59.266Z,17.00
2017-08-26T23:57:31.106Z,16.77
